Terminal Aerodrome Forecast
Issued by NWS

Home | Current Version | Previous Version | Text Only | Print | Product List | Glossary On
Versions: 1 2 3 4 5 6 7 8 9 10 11 12 13 14 15
000
FTUS44 KBMX 291100
TAFANB
TAF
KANB 291137Z 2912/3012 20008KT P6SM BKN100
     FM300200 30007G15KT P6SM OVC015
     FM300800 34006KT P6SM OVC050=

USA.gov is the U.S. government's official web portal to all federal, state and local government web resources and services.